Grimes, IA (50111)

10:31 PM CDT on August 26, 2016 (GMT -0500)
Grimes | | Change Station

Elev 974 ft 41.69 °N, 93.79 °W | Updated 1 second ago

Light Rain
Light Rain
63.4 °F
Feels Like 63.4 °F
N
5.0
Wind Variable Wind from East

Today
High -- | Low -- °F
--% Chance of Precip.
Yesterday
High -- | Low -- °F
Precip. -- in
Pressure 30.06 in
Visibility 8.0 miles
Clouds Overcast 3000 ft
Dew Point 62 °F
Humidity 96%
Rainfall 0.09 in
Snow Depth Not available.
6:35 AM 7:57 PM
Waning Crescent, 28% visible
METAR KDSM 270254Z 07008KT 8SM -RA OVC030 19/18 A3007 RMK AO2 SLP180 P0001 60001 T01940178 53006
Pressure 30.06 in
Visibility 8.0 miles
Clouds Overcast 3000 ft
Dew Point 62 °F
Humidity 96%
Rainfall 0.09 in
Snow Depth Not available.
6:35 AM 7:57 PM
Waning Crescent, 28% visible
METAR KDSM 270254Z 07008KT 8SM -RA OVC030 19/18 A3007 RMK AO2 SLP180 P0001 60001 T01940178 53006

10-Day Weather Forecast

Almanac

Astronomy

Aug. 26, 2016 Rise Set
Actual Time
Civil Twilight
Nautical Twilight
Astronomical Twilight
Moon
Length of Visible Light
Length of Day
Tomorrow will be .
, % of the Moon is Illuminated

Today's Extremes

State Highs State Lows

Community

WunderPhotos

Upload Photos

1,935,289 photos uploaded!

WunderBlog® & News

Nearby

Air Quality

  Air Quality AQ Index Pollutant
Not available.

Snow Depth

Station Depth Elevation

Earthquake Activity

City Distance Mag. Time & Date
Minimum magnitude displayed is 2.5.

Coastal Water Temperatures

Place Temperature

Stations

Nearby Weather Stations

Station Location Temp. Windchill Dew Point Humidity Wind Precip. Elev Updated Type
                   

Watches & Warnings

There are currently no watches in effect.